Time;durP1;ratioP1;P1;durP2;ratioP2;P2;SDS_P1;SDS_P2;PMS_P1;PMS_P2;Temp;Humidity;BMP_temperature;BMP_pressure;BME280_temperature;BME280_humidity;BME280_pressure;Samples;Min_cycle;Max_cycle;Signal;HPM_P1;HPM_P2
2023/08/10 00:01:21;;;;;;;21.73;10.10;;;;;;;;;;5048123;28;20037;-65
2023/08/10 00:03:47;;;;;;;34.93;13.73;;;;;;;;;;5046567;28;20049;-65
2023/08/10 00:06:12;;;;;;;28.27;13.07;;;;;;;;;;5037696;28;20096;-65
2023/08/10 00:08:37;;;;;;;34.10;13.90;;;;;;;;;;5035186;28;20539;-65
2023/08/10 00:11:02;;;;;;;30.60;14.67;;;;;;;;;;5034862;28;20021;-65
2023/08/10 00:13:29;;;;;;;32.73;13.57;;;;;;;;;;5038421;28;20049;-65
2023/08/10 00:15:54;;;;;;;29.87;13.60;;;;;;;;;;5032092;28;20025;-65
2023/08/10 00:18:20;;;;;;;32.23;14.27;;;;;;;;;;5033922;28;20120;-66
2023/08/10 00:20:45;;;;;;;36.27;15.83;;;;;;;;;;5032477;28;20538;-65
2023/08/10 00:23:10;;;;;;;37.90;14.83;;;;;;;;;;5031649;28;20025;-68
2023/08/10 00:25:36;;;;;;;30.87;15.60;;;;;;;;;;5031495;28;20155;-67
2023/08/10 00:28:01;;;;;;;35.47;16.17;;;;;;;;;;5035351;28;20474;-68
2023/08/10 00:30:27;;;;;;;30.87;16.17;;;;;;;;;;5029079;28;20021;-68
2023/08/10 00:32:52;;;;;;;32.73;16.47;;;;;;;;;;5033275;28;20037;-68
2023/08/10 00:35:18;;;;;;;31.67;15.33;;;;;;;;;;5032413;28;20029;-68
2023/08/10 00:37:43;;;;;;;28.67;12.37;;;;;;;;;;5033994;28;20032;-68
2023/08/10 00:40:12;;;;;;;20.43;9.60;;;;;;;;;;5031575;28;20028;-64
2023/08/10 00:42:37;;;;;;;19.77;9.43;;;;;;;;;;5037883;28;20019;-65
2023/08/10 00:45:03;;;;;;;31.00;13.63;;;;;;;;;;5031609;28;20517;-65
2023/08/10 00:47:28;;;;;;;31.13;15.47;;;;;;;;;;5032287;28;20037;-64
2023/08/10 00:49:53;;;;;;;30.90;14.23;;;;;;;;;;5031543;28;20025;-65
2023/08/10 00:52:19;;;;;;;21.03;11.53;;;;;;;;;;5032119;28;20339;-65
2023/08/10 00:54:44;;;;;;;31.83;14.90;;;;;;;;;;5033635;28;20067;-65
2023/08/10 00:57:10;;;;;;;32.43;16.73;;;;;;;;;;5032249;28;20045;-64
2023/08/10 00:59:37;;;;;;;40.40;18.20;;;;;;;;;;5031512;28;20021;-65
2023/08/10 01:02:02;;;;;;;43.70;18.83;;;;;;;;;;5040174;23;20054;-67
2023/08/10 01:04:28;;;;;;;38.37;18.73;;;;;;;;;;5050023;28;20362;-66
2023/08/10 01:07:11;;;;;;;30.63;16.50;;;;;;;;;;5038459;28;20033;-66
2023/08/10 01:09:39;;;;;;;34.30;15.47;;;;;;;;;;5035932;28;20101;-65
2023/08/10 01:12:23;;;;;;;32.07;16.03;;;;;;;;;;5032247;28;20033;-66
2023/08/10 01:14:51;;;;;;;42.50;20.87;;;;;;;;;;5037411;28;20032;-66
2023/08/10 01:17:26;;;;;;;45.10;20.83;;;;;;;;;;5051349;28;20096;-66
2023/08/10 01:19:52;;;;;;;38.87;19.63;;;;;;;;;;5041207;28;20036;-66
2023/08/10 01:22:24;;;;;;;49.43;21.40;;;;;;;;;;5033648;28;20018;-66
2023/08/10 01:24:56;;;;;;;44.87;19.90;;;;;;;;;;5041655;28;20507;-66
2023/08/10 01:27:21;;;;;;;41.58;20.50;;;;;;;;;;5051331;28;20388;-66
2023/08/10 01:29:47;;;;;;;40.90;19.47;;;;;;;;;;5044241;28;20029;-65
2023/08/10 01:32:13;;;;;;;46.37;20.57;;;;;;;;;;5049852;28;20036;-68
2023/08/10 01:34:39;;;;;;;53.53;23.33;;;;;;;;;;5038558;28;20469;-66
2023/08/10 01:37:04;;;;;;;47.70;22.77;;;;;;;;;;5041048;28;20033;-66
2023/08/10 01:39:32;;;;;;;47.80;22.37;;;;;;;;;;5043432;28;20025;-66
2023/08/10 01:41:57;;;;;;;49.27;22.07;;;;;;;;;;5037779;28;20022;-66
2023/08/10 01:44:22;;;;;;;57.63;23.20;;;;;;;;;;5046638;28;20030;-66
2023/08/10 01:46:49;;;;;;;50.27;22.37;;;;;;;;;;5049381;28;20029;-66
2023/08/10 01:49:14;;;;;;;53.73;22.50;;;;;;;;;;5042102;28;20017;-66
2023/08/10 01:51:41;;;;;;;46.67;22.37;;;;;;;;;;5053538;28;20361;-66
2023/08/10 01:54:08;;;;;;;48.73;21.87;;;;;;;;;;5053927;28;20068;-66
2023/08/10 01:56:33;;;;;;;46.03;22.00;;;;;;;;;;5054133;28;20062;-67
2023/08/10 01:58:59;;;;;;;52.47;24.30;;;;;;;;;;5053025;28;20334;-71
2023/08/10 02:01:24;;;;;;;59.53;24.80;;;;;;;;;;5054186;28;20017;-71
2023/08/10 02:03:49;;;;;;;52.37;24.03;;;;;;;;;;5051881;28;20059;-72
2023/08/10 02:06:14;;;;;;;47.07;22.50;;;;;;;;;;5054036;28;20017;-71
2023/08/10 02:08:40;;;;;;;50.00;22.90;;;;;;;;;;5052004;28;20100;-70
2023/08/10 02:11:05;;;;;;;34.97;16.67;;;;;;;;;;5051136;28;20075;-71
2023/08/10 02:13:30;;;;;;;41.53;18.50;;;;;;;;;;5054647;28;20021;-70
2023/08/10 02:15:55;;;;;;;48.20;21.83;;;;;;;;;;5054474;28;20420;-70
2023/08/10 02:18:21;;;;;;;41.57;20.57;;;;;;;;;;5053864;28;20021;-67
2023/08/10 02:20:46;;;;;;;41.43;20.77;;;;;;;;;;5052595;28;20389;-67
2023/08/10 02:23:11;;;;;;;48.57;21.87;;;;;;;;;;5054617;28;20013;-66
2023/08/10 02:25:37;;;;;;;40.27;19.97;;;;;;;;;;5051644;28;20048;-67
2023/08/10 02:28:02;;;;;;;47.63;23.63;;;;;;;;;;5054445;28;20071;-72
2023/08/10 02:30:27;;;;;;;48.63;24.20;;;;;;;;;;5054227;28;20082;-72
2023/08/10 02:32:52;;;;;;;43.60;23.03;;;;;;;;;;5054229;28;20481;-71
2023/08/10 02:35:18;;;;;;;44.13;22.23;;;;;;;;;;5049184;28;20405;-71
2023/08/10 02:37:43;;;;;;;38.30;18.40;;;;;;;;;;5045471;28;20033;-71
2023/08/10 02:40:12;;;;;;;29.83;16.07;;;;;;;;;;5049803;28;20021;-71
2023/08/10 02:42:38;;;;;;;27.07;14.17;;;;;;;;;;5050840;28;20017;-71
2023/08/10 02:45:04;;;;;;;28.50;15.03;;;;;;;;;;5052160;28;20020;-72
2023/08/10 02:47:29;;;;;;;34.83;17.90;;;;;;;;;;5054676;28;20021;-72
2023/08/10 02:49:54;;;;;;;53.67;23.60;;;;;;;;;;5053881;28;20028;-71
2023/08/10 02:52:19;;;;;;;46.20;22.40;;;;;;;;;;5054245;28;20025;-71
2023/08/10 02:54:45;;;;;;;52.93;24.43;;;;;;;;;;5054166;28;20021;-70
2023/08/10 02:57:11;;;;;;;52.37;25.10;;;;;;;;;;5052735;28;20461;-72
2023/08/10 02:59:36;;;;;;;51.20;24.73;;;;;;;;;;5049893;28;20040;-71
2023/08/10 03:02:02;;;;;;;54.47;25.80;;;;;;;;;;5050420;28;20039;-72
2023/08/10 03:04:28;;;;;;;50.87;23.93;;;;;;;;;;5031253;28;20021;-72
2023/08/10 03:06:53;;;;;;;58.50;25.07;;;;;;;;;;5034017;28;20025;-71
2023/08/10 03:09:18;;;;;;;49.17;24.67;;;;;;;;;;5030069;28;20092;-71
2023/08/10 03:11:43;;;;;;;50.80;23.80;;;;;;;;;;5033080;28;20125;-72
2023/08/10 03:14:09;;;;;;;50.33;23.30;;;;;;;;;;5030635;28;20029;-71
2023/08/10 03:16:34;;;;;;;52.00;25.10;;;;;;;;;;5032215;28;20412;-72
2023/08/10 03:19:00;;;;;;;55.60;25.07;;;;;;;;;;5028602;28;20037;-71
2023/08/10 03:21:26;;;;;;;52.67;24.70;;;;;;;;;;5031481;28;20078;-70
2023/08/10 03:23:51;;;;;;;55.97;25.53;;;;;;;;;;5031718;28;20422;-71
2023/08/10 03:26:16;;;;;;;53.90;25.57;;;;;;;;;;5027896;28;20022;-71
2023/08/10 03:28:41;;;;;;;49.53;23.70;;;;;;;;;;5029793;28;20537;-66
2023/08/10 03:31:10;;;;;;;54.60;25.93;;;;;;;;;;5028172;28;20075;-67
2023/08/10 03:33:35;;;;;;;58.30;26.27;;;;;;;;;;5026425;28;20401;-67
2023/08/10 03:36:02;;;;;;;57.60;26.10;;;;;;;;;;5030925;28;20157;-66
2023/08/10 03:38:27;;;;;;;55.20;26.47;;;;;;;;;;5030748;28;20021;-67
2023/08/10 03:40:52;;;;;;;59.87;27.93;;;;;;;;;;5033191;28;20014;-67
2023/08/10 03:43:18;;;;;;;64.27;27.23;;;;;;;;;;5031436;28;20032;-66
2023/08/10 03:45:43;;;;;;;63.50;28.60;;;;;;;;;;5026213;28;20607;-67
2023/08/10 03:48:08;;;;;;;61.60;28.03;;;;;;;;;;5031711;28;20022;-66
2023/08/10 03:50:33;;;;;;;56.10;28.53;;;;;;;;;;5032340;28;20014;-67
2023/08/10 03:52:59;;;;;;;59.23;28.63;;;;;;;;;;5033177;28;20494;-67
2023/08/10 03:55:24;;;;;;;64.47;29.37;;;;;;;;;;5029127;28;20102;-67
2023/08/10 03:57:50;;;;;;;60.43;28.20;;;;;;;;;;5032623;28;20021;-66
2023/08/10 04:00:16;;;;;;;64.83;28.17;;;;;;;;;;5032826;28;20014;-67
2023/08/10 04:02:41;;;;;;;65.13;28.00;;;;;;;;;;5035065;28;20497;-66
2023/08/10 04:05:07;;;;;;;67.50;29.83;;;;;;;;;;5033250;28;20185;-66
2023/08/10 04:07:33;;;;;;;66.60;30.23;;;;;;;;;;5040854;28;20031;-67
2023/08/10 04:09:59;;;;;;;60.07;27.77;;;;;;;;;;5052071;28;20380;-66
2023/08/10 04:12:24;;;;;;;70.03;29.83;;;;;;;;;;5043724;28;20093;-67
2023/08/10 04:14:49;;;;;;;64.03;28.57;;;;;;;;;;5032100;28;20045;-67
2023/08/10 04:17:15;;;;;;;63.93;28.57;;;;;;;;;;5032207;28;20439;-66
2023/08/10 04:19:40;;;;;;;60.43;28.20;;;;;;;;;;5032633;28;20025;-67
2023/08/10 04:22:06;;;;;;;66.00;28.37;;;;;;;;;;5031443;28;20021;-67
2023/08/10 04:24:31;;;;;;;63.57;28.33;;;;;;;;;;5035859;28;20385;-67
2023/08/10 04:26:56;;;;;;;60.30;28.97;;;;;;;;;;5030871;28;20107;-66
2023/08/10 04:29:26;;;;;;;71.60;29.40;;;;;;;;;;5030109;28;20489;-69
2023/08/10 04:31:51;;;;;;;61.97;28.00;;;;;;;;;;5030774;28;20022;-67
2023/08/10 04:34:17;;;;;;;58.13;28.10;;;;;;;;;;5036240;28;20036;-66
2023/08/10 04:36:42;;;;;;;55.93;27.20;;;;;;;;;;5032502;28;20027;-67
2023/08/10 04:39:08;;;;;;;56.13;26.83;;;;;;;;;;5042884;28;20114;-67
2023/08/10 04:41:33;;;;;;;53.50;27.70;;;;;;;;;;5025821;28;20493;-67
2023/08/10 04:43:58;;;;;;;46.30;24.33;;;;;;;;;;5031646;28;20032;-67
2023/08/10 04:46:23;;;;;;;40.67;22.20;;;;;;;;;;5031620;28;20025;-67
2023/08/10 04:48:49;;;;;;;35.07;20.03;;;;;;;;;;5031954;28;20469;-68
2023/08/10 04:51:14;;;;;;;30.77;16.53;;;;;;;;;;5033469;28;20017;-66
2023/08/10 04:53:39;;;;;;;27.27;14.13;;;;;;;;;;5033089;28;20029;-66
2023/08/10 04:56:04;;;;;;;22.07;11.67;;;;;;;;;;5040567;28;20061;-66
2023/08/10 04:58:30;;;;;;;23.87;9.83;;;;;;;;;;5037446;28;20484;-66
2023/08/10 05:00:55;;;;;;;15.27;8.17;;;;;;;;;;5032439;28;20485;-66
2023/08/10 05:03:21;;;;;;;15.33;6.47;;;;;;;;;;5032263;28;20065;-66
2023/08/10 05:05:46;;;;;;;12.37;6.40;;;;;;;;;;5029685;28;20034;-66
2023/08/10 05:08:12;;;;;;;17.83;5.07;;;;;;;;;;5030343;28;20040;-66
2023/08/10 05:10:42;;;;;;;13.90;5.60;;;;;;;;;;5030247;28;20052;-67
2023/08/10 05:13:07;;;;;;;11.87;4.20;;;;;;;;;;5028992;28;20026;-68
2023/08/10 05:15:32;;;;;;;7.97;3.55;;;;;;;;;;5033047;28;20044;-66
2023/08/10 05:17:58;;;;;;;8.32;3.35;;;;;;;;;;5036025;28;20029;-68
2023/08/10 05:20:24;;;;;;;10.23;4.28;;;;;;;;;;5029136;28;20100;-66
2023/08/10 05:22:49;;;;;;;8.27;4.00;;;;;;;;;;5034881;28;20043;-66
2023/08/10 05:25:14;;;;;;;8.48;3.40;;;;;;;;;;5032788;28;20369;-66
2023/08/10 05:27:40;;;;;;;8.32;3.55;;;;;;;;;;5034308;28;20464;-66
2023/08/10 05:30:08;;;;;;;10.90;3.53;;;;;;;;;;5037260;28;20067;-67
2023/08/10 05:32:33;;;;;;;8.30;3.40;;;;;;;;;;5032726;28;20067;-66
2023/08/10 05:34:59;;;;;;;11.85;3.25;;;;;;;;;;5037027;28;20048;-66
2023/08/10 05:37:24;;;;;;;7.50;3.28;;;;;;;;;;5046821;28;20032;-66
2023/08/10 05:39:49;;;;;;;9.00;3.20;;;;;;;;;;5038480;28;20032;-67
2023/08/10 05:42:15;;;;;;;8.57;3.35;;;;;;;;;;5035478;28;20044;-66
2023/08/10 05:44:40;;;;;;;10.85;3.42;;;;;;;;;;5051102;28;20024;-68
2023/08/10 05:47:06;;;;;;;9.18;3.33;;;;;;;;;;5044183;28;20017;-66
2023/08/10 05:49:31;;;;;;;9.38;3.03;;;;;;;;;;5036773;28;20021;-67
2023/08/10 05:51:56;;;;;;;11.82;3.75;;;;;;;;;;5047919;28;20347;-66
2023/08/10 05:54:22;;;;;;;10.15;3.65;;;;;;;;;;5034446;28;20441;-67
2023/08/10 05:56:47;;;;;;;10.68;3.70;;;;;;;;;;5044474;28;20025;-66
2023/08/10 05:59:12;;;;;;;10.25;3.42;;;;;;;;;;5040510;28;20030;-66
2023/08/10 06:01:40;;;;;;;9.98;3.67;;;;;;;;;;5039355;28;20059;-67
2023/08/10 06:04:05;;;;;;;9.35;3.38;;;;;;;;;;5030880;28;20056;-66
2023/08/10 06:06:31;;;;;;;8.93;3.15;;;;;;;;;;5037052;28;20026;-67
2023/08/10 06:08:57;;;;;;;10.75;3.10;;;;;;;;;;5042232;28;20018;-66
2023/08/10 06:11:22;;;;;;;9.23;3.30;;;;;;;;;;5042858;28;20067;-67
2023/08/10 06:13:47;;;;;;;10.30;3.30;;;;;;;;;;5047193;28;20420;-67
2023/08/10 06:16:12;;;;;;;8.88;3.28;;;;;;;;;;5040173;28;20053;-67
2023/08/10 06:18:38;;;;;;;9.98;3.13;;;;;;;;;;5046536;28;20083;-67
2023/08/10 06:21:06;;;;;;;8.70;2.90;;;;;;;;;;5053760;28;20012;-67
2023/08/10 06:23:31;;;;;;;9.52;3.00;;;;;;;;;;5047704;28;20013;-68
2023/08/10 06:25:56;;;;;;;7.85;2.75;;;;;;;;;;5047296;28;20047;-67
2023/08/10 06:28:22;;;;;;;9.02;3.20;;;;;;;;;;5035482;28;20014;-67
2023/08/10 06:30:47;;;;;;;9.18;2.78;;;;;;;;;;5042260;28;20083;-68
2023/08/10 06:33:12;;;;;;;8.77;2.85;;;;;;;;;;5037045;28;20047;-67
2023/08/10 06:35:39;;;;;;;10.00;2.72;;;;;;;;;;5041243;28;20481;-67
2023/08/10 06:38:04;;;;;;;8.68;2.88;;;;;;;;;;5045062;28;20024;-67
2023/08/10 06:40:30;;;;;;;9.13;2.83;;;;;;;;;;5044950;28;20452;-72
2023/08/10 06:42:55;;;;;;;9.80;2.63;;;;;;;;;;5053998;28;20032;-72
2023/08/10 06:45:21;;;;;;;8.75;2.55;;;;;;;;;;5044078;28;20025;-71
2023/08/10 06:47:46;;;;;;;7.10;2.50;;;;;;;;;;5042508;28;20029;-72
2023/08/10 06:50:12;;;;;;;8.38;2.58;;;;;;;;;;5053742;28;20467;-68
2023/08/10 06:52:37;;;;;;;6.78;2.53;;;;;;;;;;5041137;28;20102;-69
2023/08/10 06:55:02;;;;;;;7.18;2.28;;;;;;;;;;5043388;28;20024;-69
2023/08/10 06:57:28;;;;;;;5.90;2.00;;;;;;;;;;5038998;28;20017;-68
2023/08/10 06:59:53;;;;;;;8.23;2.30;;;;;;;;;;5053706;28;20043;-69
2023/08/10 07:02:18;;;;;;;10.00;2.40;;;;;;;;;;5053362;28;20052;-68
2023/08/10 07:04:45;;;;;;;10.88;2.38;;;;;;;;;;5053508;28;20096;-69
2023/08/10 07:07:12;;;;;;;9.80;2.13;;;;;;;;;;5052994;28;20020;-68
2023/08/10 07:09:37;;;;;;;7.47;2.17;;;;;;;;;;5053187;28;20017;-70
2023/08/10 07:12:03;;;;;;;5.95;2.00;;;;;;;;;;5053437;28;20024;-71
2023/08/10 07:14:28;;;;;;;9.00;2.15;;;;;;;;;;5034626;28;20059;-71
2023/08/10 07:16:53;;;;;;;10.93;2.22;;;;;;;;;;5035528;28;20401;-70
2023/08/10 07:19:19;;;;;;;10.23;2.20;;;;;;;;;;5033844;28;20432;-71
2023/08/10 07:21:44;;;;;;;8.73;1.95;;;;;;;;;;5030223;28;20014;-71
2023/08/10 07:24:09;;;;;;;8.38;1.80;;;;;;;;;;5033620;28;20017;-71
2023/08/10 07:26:34;;;;;;;6.75;1.88;;;;;;;;;;5033940;28;20039;-71
2023/08/10 07:29:00;;;;;;;12.82;3.33;;;;;;;;;;5032674;28;20037;-72
2023/08/10 07:31:31;;;;;;;8.27;1.55;;;;;;;;;;5040373;28;20074;-72
2023/08/10 07:33:57;;;;;;;7.82;1.70;;;;;;;;;;5034081;28;20473;-72
2023/08/10 07:36:22;;;;;;;6.63;1.70;;;;;;;;;;5015655;28;20112;-72
2023/08/10 07:38:48;;;;;;;8.95;2.00;;;;;;;;;;5036661;28;20478;-72
2023/08/10 07:41:13;;;;;;;9.63;2.10;;;;;;;;;;5033173;28;20160;-72
2023/08/10 07:43:38;;;;;;;7.30;1.85;;;;;;;;;;5033573;28;20013;-72
2023/08/10 07:46:04;;;;;;;9.48;1.92;;;;;;;;;;5033669;28;20021;-72
2023/08/10 07:48:29;;;;;;;8.57;2.25;;;;;;;;;;5032991;28;20048;-72
2023/08/10 07:50:55;;;;;;;9.82;1.67;;;;;;;;;;5035465;28;20484;-72
2023/08/10 07:53:20;;;;;;;6.00;1.33;;;;;;;;;;5032913;28;20032;-72
2023/08/10 07:55:45;;;;;;;8.77;1.80;;;;;;;;;;5032994;28;20045;-71
2023/08/10 07:58:12;;;;;;;8.55;1.92;;;;;;;;;;5032960;28;20475;-72
2023/08/10 08:00:38;;;;;;;6.82;1.67;;;;;;;;;;5033329;28;20005;-72
2023/08/10 08:03:04;;;;;;;5.55;1.67;;;;;;;;;;5051481;28;20056;-72
2023/08/10 08:05:30;;;;;;;7.05;1.90;;;;;;;;;;5042141;28;20041;-72
2023/08/10 08:07:55;;;;;;;8.38;1.92;;;;;;;;;;5033473;28;20052;-71
2023/08/10 08:10:20;;;;;;;9.02;2.25;;;;;;;;;;5032881;28;20076;-72
2023/08/10 08:12:45;;;;;;;5.95;1.48;;;;;;;;;;5032444;28;20021;-71
2023/08/10 08:15:10;;;;;;;5.60;1.33;;;;;;;;;;5032520;28;20042;-72
2023/08/10 08:17:54;;;;;;;3.83;1.20;;;;;;;;;;5033250;28;20104;-70
2023/08/10 08:20:20;;;;;;;5.80;1.60;;;;;;;;;;5032620;28;20013;-70
2023/08/10 08:22:45;;;;;;;8.75;1.63;;;;;;;;;;5036047;28;20378;-69
2023/08/10 08:25:11;;;;;;;6.45;1.60;;;;;;;;;;5034034;28;20112;-70
2023/08/10 08:27:38;;;;;;;6.50;1.40;;;;;;;;;;5032756;28;20026;-71
2023/08/10 08:30:03;;;;;;;5.90;1.60;;;;;;;;;;5033123;28;20079;-70
2023/08/10 08:32:28;;;;;;;7.80;1.70;;;;;;;;;;5032870;28;20045;-70
2023/08/10 08:34:53;;;;;;;8.25;1.55;;;;;;;;;;5036874;28;20021;-70
2023/08/10 08:37:19;;;;;;;6.30;1.60;;;;;;;;;;5032456;28;20025;-70
2023/08/10 08:39:44;;;;;;;6.20;1.20;;;;;;;;;;5032698;28;20105;-70
2023/08/10 08:42:09;;;;;;;9.15;1.75;;;;;;;;;;5036688;28;20049;-70
2023/08/10 08:44:35;;;;;;;7.85;1.13;;;;;;;;;;5032849;28;20009;-70
2023/08/10 08:47:00;;;;;;;4.70;1.00;;;;;;;;;;5032488;28;20051;-70
2023/08/10 08:49:26;;;;;;;6.22;1.10;;;;;;;;;;5032784;28;20025;-70
2023/08/10 08:51:52;;;;;;;7.03;1.65;;;;;;;;;;5032840;28;20504;-70
2023/08/10 08:54:18;;;;;;;5.03;1.13;;;;;;;;;;5032616;28;20013;-70
2023/08/10 08:56:44;;;;;;;6.25;1.23;;;;;;;;;;5032348;28;20100;-70
2023/08/10 08:59:09;;;;;;;6.82;1.42;;;;;;;;;;5031714;28;20109;-70
2023/08/10 09:01:37;;;;;;;6.07;1.40;;;;;;;;;;5032458;28;20025;-72
2023/08/10 09:04:03;;;;;;;6.75;1.50;;;;;;;;;;5032489;28;20509;-71
2023/08/10 09:06:28;;;;;;;6.40;1.48;;;;;;;;;;5037964;28;20013;-70
2023/08/10 09:08:53;;;;;;;7.65;1.67;;;;;;;;;;5050916;28;20047;-71
2023/08/10 09:11:18;;;;;;;6.07;1.30;;;;;;;;;;5051172;28;20024;-70
2023/08/10 09:14:03;;;;;;;5.55;1.05;;;;;;;;;;5050868;28;20055;-70
2023/08/10 09:16:28;;;;;;;6.13;1.20;;;;;;;;;;5043890;28;20025;-70
2023/08/10 09:18:54;;;;;;;5.40;1.20;;;;;;;;;;5032031;28;20028;-70
2023/08/10 09:21:20;;;;;;;6.68;1.10;;;;;;;;;;5031468;28;20029;-70
2023/08/10 09:23:46;;;;;;;4.85;0.80;;;;;;;;;;5032002;28;20052;-70
2023/08/10 09:26:12;;;;;;;6.97;1.85;;;;;;;;;;5033975;28;20018;-70
2023/08/10 09:28:37;;;;;;;7.50;1.35;;;;;;;;;;5032458;28;20472;-67
2023/08/10 09:31:03;;;;;;;7.70;1.45;;;;;;;;;;5032342;28;20028;-67
2023/08/10 09:33:31;;;;;;;4.40;1.05;;;;;;;;;;5036177;28;20022;-67
2023/08/10 09:36:03;;;;;;;6.22;1.00;;;;;;;;;;5032444;28;20034;-65
2023/08/10 09:38:28;;;;;;;8.68;1.15;;;;;;;;;;5032595;28;20025;-67
2023/08/10 09:41:06;;;;;;;4.63;1.05;;;;;;;;;;5032136;28;20041;-67
2023/08/10 09:43:31;;;;;;;5.05;0.90;;;;;;;;;;5032262;28;20014;-66
2023/08/10 09:46:04;;;;;;;4.55;0.90;;;;;;;;;;5031637;28;20018;-67
2023/08/10 09:48:33;;;;;;;7.20;1.00;;;;;;;;;;5036820;28;20458;-67
2023/08/10 09:50:58;;;;;;;3.92;0.90;;;;;;;;;;5031148;28;20029;-67
2023/08/10 09:53:24;;;;;;;6.50;1.05;;;;;;;;;;5031995;28;20021;-67
2023/08/10 09:55:49;;;;;;;2.60;0.80;;;;;;;;;;5032040;28;20025;-68
2023/08/10 09:58:14;;;;;;;5.70;1.00;;;;;;;;;;5031503;28;20025;-67
2023/08/10 10:00:40;;;;;;;5.88;1.00;;;;;;;;;;5036185;28;20023;-66
2023/08/10 10:03:05;;;;;;;3.80;0.88;;;;;;;;;;5038033;28;20383;-67
2023/08/10 10:05:31;;;;;;;5.78;1.10;;;;;;;;;;5050282;28;20435;-66
2023/08/10 10:07:56;;;;;;;6.28;1.10;;;;;;;;;;5050559;28;20427;-66
2023/08/10 10:10:22;;;;;;;4.32;0.90;;;;;;;;;;5050430;28;20013;-67
2023/08/10 10:12:48;;;;;;;5.43;1.20;;;;;;;;;;5052664;28;20104;-66
2023/08/10 10:15:14;;;;;;;6.47;1.10;;;;;;;;;;5050675;28;20017;-66
2023/08/10 10:17:41;;;;;;;4.93;1.25;;;;;;;;;;5034723;28;20040;-67
2023/08/10 10:20:11;;;;;;;5.90;1.02;;;;;;;;;;5035482;28;20070;-67
2023/08/10 10:22:37;;;;;;;5.88;1.50;;;;;;;;;;5034558;28;20022;-67
2023/08/10 10:25:03;;;;;;;4.15;0.80;;;;;;;;;;5034273;28;20099;-66
2023/08/10 10:27:37;;;;;;;5.22;1.17;;;;;;;;;;5042682;28;20049;-67
2023/08/10 10:30:11;;;;;;;6.38;1.08;;;;;;;;;;5034974;28;20028;-67
2023/08/10 10:32:41;;;;;;;3.83;1.00;;;;;;;;;;5034366;28;20013;-67
2023/08/10 10:35:07;;;;;;;5.05;1.10;;;;;;;;;;5034847;28;20477;-66
2023/08/10 10:37:34;;;;;;;5.70;1.02;;;;;;;;;;5034589;28;20143;-67
2023/08/10 10:40:16;;;;;;;5.15;1.15;;;;;;;;;;5034338;28;20032;-68
2023/08/10 10:43:00;;;;;;;5.45;1.30;;;;;;;;;;5034835;28;20017;-67
2023/08/10 10:45:25;;;;;;;4.68;0.93;;;;;;;;;;5033137;28;20013;-66
2023/08/10 10:47:50;;;;;;;5.25;1.00;;;;;;;;;;5034671;28;20030;-68
2023/08/10 10:50:23;;;;;;;4.18;1.35;;;;;;;;;;5042281;28;20025;-69
2023/08/10 10:52:57;;;;;;;4.18;0.80;;;;;;;;;;5045499;28;20079;-69
2023/08/10 10:55:27;;;;;;;5.68;1.00;;;;;;;;;;5053458;28;20199;-67
2023/08/10 10:57:52;;;;;;;5.68;0.77;;;;;;;;;;5051483;28;20095;-67
2023/08/10 11:00:22;;;;;;;5.28;0.90;;;;;;;;;;5053388;28;20415;-67
2023/08/10 11:02:48;;;;;;;3.70;0.90;;;;;;;;;;5052997;28;20041;-67
2023/08/10 11:05:14;;;;;;;4.70;0.90;;;;;;;;;;5052889;28;20469;-67
2023/08/10 11:07:47;;;;;;;7.40;1.00;;;;;;;;;;5053580;28;20112;-69
2023/08/10 11:10:12;;;;;;;4.05;1.10;;;;;;;;;;5053396;28;20342;-67
2023/08/10 11:12:38;;;;;;;5.10;1.10;;;;;;;;;;5053049;28;20023;-66
2023/08/10 11:15:08;;;;;;;7.28;1.10;;;;;;;;;;5052681;28;20012;-67
2023/08/10 11:17:34;;;;;;;5.50;1.05;;;;;;;;;;5036600;28;20104;-66
2023/08/10 11:20:00;;;;;;;6.57;1.10;;;;;;;;;;5031999;28;20328;-66
2023/08/10 11:22:25;;;;;;;8.20;1.08;;;;;;;;;;5052750;28;20009;-67
2023/08/10 11:24:50;;;;;;;8.90;1.25;;;;;;;;;;5051076;28;20485;-66
2023/08/10 11:27:16;;;;;;;4.50;1.00;;;;;;;;;;5047004;28;20041;-66
2023/08/10 11:29:41;;;;;;;5.68;1.00;;;;;;;;;;5033302;28;20057;-68
2023/08/10 11:32:06;;;;;;;3.05;0.77;;;;;;;;;;5033327;28;20017;-68
2023/08/10 11:34:33;;;;;;;4.68;0.95;;;;;;;;;;5033232;28;20071;-69
2023/08/10 11:36:58;;;;;;;4.03;0.90;;;;;;;;;;5039164;28;20028;-66
2023/08/10 11:39:24;;;;;;;4.75;0.95;;;;;;;;;;5035385;28;20031;-67
2023/08/10 11:41:49;;;;;;;3.63;0.75;;;;;;;;;;5033751;28;20029;-66
2023/08/10 11:44:26;;;;;;;3.80;0.90;;;;;;;;;;5033441;28;20006;-66
2023/08/10 11:46:52;;;;;;;6.25;1.38;;;;;;;;;;5033502;28;20017;-67
2023/08/10 11:49:18;;;;;;;4.00;0.90;;;;;;;;;;5036728;28;20013;-66
2023/08/10 11:51:43;;;;;;;3.90;1.00;;;;;;;;;;5033763;28;20021;-67
2023/08/10 11:54:09;;;;;;;4.05;0.90;;;;;;;;;;5033361;28;20025;-67
2023/08/10 11:56:34;;;;;;;4.45;0.88;;;;;;;;;;5032810;28;20039;-67
2023/08/10 11:59:18;;;;;;;5.38;1.08;;;;;;;;;;5032994;28;20385;-66
2023/08/10 12:01:44;;;;;;;6.20;1.00;;;;;;;;;;5040428;28;20470;-66
2023/08/10 12:04:10;;;;;;;3.28;0.90;;;;;;;;;;5037973;28;20045;-67
2023/08/10 12:06:40;;;;;;;3.67;0.98;;;;;;;;;;5033049;28;20365;-67
2023/08/10 12:09:10;;;;;;;3.72;0.75;;;;;;;;;;5029990;28;20478;-67
2023/08/10 12:11:35;;;;;;;4.60;0.90;;;;;;;;;;5051558;28;20031;-66
2023/08/10 12:14:01;;;;;;;5.35;1.20;;;;;;;;;;5037985;28;20097;-67
2023/08/10 12:16:26;;;;;;;4.22;0.90;;;;;;;;;;5033387;28;20013;-67
2023/08/10 12:18:51;;;;;;;3.50;1.10;;;;;;;;;;5033024;28;20096;-66
2023/08/10 12:21:16;;;;;;;6.93;1.15;;;;;;;;;;5032937;28;20434;-68
2023/08/10 12:23:42;;;;;;;5.18;1.25;;;;;;;;;;5032335;28;20017;-67
2023/08/10 12:26:07;;;;;;;3.20;0.90;;;;;;;;;;5032707;28;20123;-66
2023/08/10 12:28:32;;;;;;;5.78;1.02;;;;;;;;;;5032793;28;20013;-67
2023/08/10 12:30:58;;;;;;;4.60;1.00;;;;;;;;;;5048777;28;20025;-67
2023/08/10 12:33:24;;;;;;;3.38;0.88;;;;;;;;;;5051670;28;20040;-68
2023/08/10 12:35:49;;;;;;;4.05;1.05;;;;;;;;;;5051110;28;20384;-67
2023/08/10 12:38:15;;;;;;;3.75;1.00;;;;;;;;;;5034464;28;20108;-67
2023/08/10 12:40:40;;;;;;;7.43;0.90;;;;;;;;;;5033008;28;20025;-67
2023/08/10 12:43:06;;;;;;;4.93;0.93;;;;;;;;;;5032633;28;20170;-68
2023/08/10 12:45:31;;;;;;;5.95;1.10;;;;;;;;;;5038396;28;20036;-67
2023/08/10 12:47:59;;;;;;;4.35;1.00;;;;;;;;;;5042133;28;20075;-67
2023/08/10 12:50:24;;;;;;;5.55;0.90;;;;;;;;;;5032217;28;20017;-68
2023/08/10 12:52:50;;;;;;;4.55;1.10;;;;;;;;;;5032600;28;20025;-67
2023/08/10 12:55:16;;;;;;;6.68;1.00;;;;;;;;;;5032425;28;20028;-68
2023/08/10 12:57:41;;;;;;;3.67;1.10;;;;;;;;;;5032395;28;20080;-73
2023/08/10 13:00:11;;;;;;;2.63;0.80;;;;;;;;;;5032719;28;20025;-72
2023/08/10 13:02:37;;;;;;;5.53;1.07;;;;;;;;;;5041941;28;20489;-68
2023/08/10 13:05:02;;;;;;;4.28;1.08;;;;;;;;;;5051246;28;20068;-67
2023/08/10 13:07:27;;;;;;;9.10;1.00;;;;;;;;;;5051125;28;20492;-66
2023/08/10 13:09:53;;;;;;;5.85;1.10;;;;;;;;;;5051128;28;20036;-67
2023/08/10 13:12:18;;;;;;;3.65;1.30;;;;;;;;;;5051213;28;20017;-67
2023/08/10 13:14:44;;;;;;;3.95;1.08;;;;;;;;;;5051280;28;20021;-66
2023/08/10 13:17:10;;;;;;;5.82;1.10;;;;;;;;;;5050802;28;20088;-67
2023/08/10 13:19:36;;;;;;;5.43;1.00;;;;;;;;;;5050701;28;20124;-68
2023/08/10 13:22:02;;;;;;;4.60;1.13;;;;;;;;;;5050901;28;20017;-68
2023/08/10 13:24:27;;;;;;;4.35;1.00;;;;;;;;;;5050790;28;20481;-68
2023/08/10 13:26:53;;;;;;;3.90;1.00;;;;;;;;;;5048124;28;20052;-67
2023/08/10 13:29:18;;;;;;;4.90;1.30;;;;;;;;;;5031387;28;20343;-68
2023/08/10 13:31:44;;;;;;;5.18;1.20;;;;;;;;;;5046733;28;20473;-68
2023/08/10 13:34:11;;;;;;;3.92;1.38;;;;;;;;;;5036810;28;20056;-68
2023/08/10 13:36:36;;;;;;;4.25;1.10;;;;;;;;;;5036950;28;20074;-69
2023/08/10 13:39:02;;;;;;;4.88;1.05;;;;;;;;;;5031921;28;20018;-68
2023/08/10 13:41:27;;;;;;;6.10;1.40;;;;;;;;;;5034814;28;20101;-68
2023/08/10 13:43:52;;;;;;;5.70;1.08;;;;;;;;;;5032289;28;20022;-68
2023/08/10 13:46:17;;;;;;;6.38;1.30;;;;;;;;;;5032085;28;20025;-67
2023/08/10 13:48:43;;;;;;;3.97;1.05;;;;;;;;;;5036027;28;20033;-68
2023/08/10 13:51:09;;;;;;;4.35;1.13;;;;;;;;;;5037243;28;20074;-68
2023/08/10 13:53:34;;;;;;;4.18;1.30;;;;;;;;;;5035855;28;20100;-67
2023/08/10 13:56:00;;;;;;;5.47;1.45;;;;;;;;;;5036690;28;20100;-65
2023/08/10 13:58:25;;;;;;;4.82;1.05;;;;;;;;;;5035669;28;20025;-66
2023/08/10 14:00:50;;;;;;;5.50;1.20;;;;;;;;;;5035715;28;20017;-65
2023/08/10 14:03:15;;;;;;;4.72;1.50;;;;;;;;;;5035020;28;20053;-66
2023/08/10 14:05:41;;;;;;;4.28;1.00;;;;;;;;;;5035312;28;20480;-66
2023/08/10 14:08:06;;;;;;;4.55;1.38;;;;;;;;;;5035707;28;20038;-66
2023/08/10 14:10:31;;;;;;;4.57;1.20;;;;;;;;;;5041307;28;20466;-66
2023/08/10 14:12:57;;;;;;;5.47;1.20;;;;;;;;;;5035552;28;20469;-66
2023/08/10 14:15:22;;;;;;;4.20;1.80;;;;;;;;;;5039562;28;20020;-66
2023/08/10 14:17:47;;;;;;;6.03;1.42;;;;;;;;;;5035468;28;20032;-66
2023/08/10 14:20:13;;;;;;;5.93;1.67;;;;;;;;;;5035234;28;20017;-66
2023/08/10 14:22:38;;;;;;;3.80;0.90;;;;;;;;;;5035504;28;20073;-66
2023/08/10 14:25:04;;;;;;;9.63;1.58;;;;;;;;;;5035287;28;20006;-65
2023/08/10 14:27:29;;;;;;;10.30;1.35;;;;;;;;;;5046441;28;20100;-65